sensor_id;sensor_type;location;lat;lon;timestamp;P1;durP1;ratioP1;P2;durP2;ratioP2
3401;SDS011;1714;49.756;8.610;2023-07-31T00:05:18;5.30;;;1.75;;
3401;SDS011;1714;49.756;8.610;2023-07-31T00:15:53;5.97;;;1.20;;
3401;SDS011;1714;49.756;8.610;2023-07-31T00:26:28;4.70;;;1.20;;
3401;SDS011;1714;49.756;8.610;2023-07-31T00:37:03;7.50;;;1.58;;
3401;SDS011;1714;49.756;8.610;2023-07-31T00:47:38;6.57;;;1.80;;
3401;SDS011;1714;49.756;8.610;2023-07-31T00:58:14;5.97;;;1.35;;
3401;SDS011;1714;49.756;8.610;2023-07-31T01:08:57;6.78;;;1.70;;
3401;SDS011;1714;49.756;8.610;2023-07-31T01:19:38;3.80;;;1.90;;
3401;SDS011;1714;49.756;8.610;2023-07-31T01:30:16;4.88;;;1.60;;
3401;SDS011;1714;49.756;8.610;2023-07-31T01:40:57;8.15;;;2.08;;
3401;SDS011;1714;49.756;8.610;2023-07-31T01:51:32;8.18;;;2.33;;
3401;SDS011;1714;49.756;8.610;2023-07-31T02:02:08;8.25;;;1.80;;
3401;SDS011;1714;49.756;8.610;2023-07-31T02:12:44;5.45;;;1.73;;
3401;SDS011;1714;49.756;8.610;2023-07-31T02:23:19;4.55;;;1.65;;
3401;SDS011;1714;49.756;8.610;2023-07-31T02:33:54;5.40;;;1.58;;
3401;SDS011;1714;49.756;8.610;2023-07-31T02:44:29;3.90;;;1.80;;
3401;SDS011;1714;49.756;8.610;2023-07-31T02:55:04;8.52;;;2.65;;
3401;SDS011;1714;49.756;8.610;2023-07-31T03:05:40;3.85;;;1.50;;
3401;SDS011;1714;49.756;8.610;2023-07-31T03:16:15;5.20;;;1.55;;
3401;SDS011;1714;49.756;8.610;2023-07-31T03:26:51;7.95;;;2.20;;
3401;SDS011;1714;49.756;8.610;2023-07-31T03:37:26;3.40;;;1.83;;
3401;SDS011;1714;49.756;8.610;2023-07-31T03:48:00;7.72;;;2.58;;
3401;SDS011;1714;49.756;8.610;2023-07-31T03:58:37;6.47;;;1.83;;
3401;SDS011;1714;49.756;8.610;2023-07-31T04:09:12;6.22;;;1.73;;
3401;SDS011;1714;49.756;8.610;2023-07-31T04:19:47;4.30;;;1.73;;
3401;SDS011;1714;49.756;8.610;2023-07-31T04:30:22;8.88;;;2.90;;
3401;SDS011;1714;49.756;8.610;2023-07-31T04:40:57;5.20;;;1.77;;
3401;SDS011;1714;49.756;8.610;2023-07-31T04:51:32;5.40;;;2.08;;
3401;SDS011;1714;49.756;8.610;2023-07-31T05:02:08;5.50;;;1.80;;
3401;SDS011;1714;49.756;8.610;2023-07-31T05:12:43;3.72;;;1.77;;
3401;SDS011;1714;49.756;8.610;2023-07-31T05:23:18;5.50;;;2.00;;
3401;SDS011;1714;49.756;8.610;2023-07-31T05:33:54;8.13;;;1.85;;
3401;SDS011;1714;49.756;8.610;2023-07-31T05:44:29;7.53;;;2.78;;
3401;SDS011;1714;49.756;8.610;2023-07-31T05:55:04;7.20;;;1.95;;
3401;SDS011;1714;49.756;8.610;2023-07-31T06:05:39;5.28;;;1.83;;
3401;SDS011;1714;49.756;8.610;2023-07-31T06:16:14;7.25;;;1.67;;
3401;SDS011;1714;49.756;8.610;2023-07-31T06:26:50;5.80;;;1.90;;
3401;SDS011;1714;49.756;8.610;2023-07-31T06:37:25;7.75;;;2.08;;
3401;SDS011;1714;49.756;8.610;2023-07-31T06:47:59;4.32;;;1.80;;
3401;SDS011;1714;49.756;8.610;2023-07-31T06:58:36;5.78;;;2.05;;
3401;SDS011;1714;49.756;8.610;2023-07-31T07:09:10;9.43;;;3.00;;
3401;SDS011;1714;49.756;8.610;2023-07-31T07:19:45;6.80;;;1.92;;
3401;SDS011;1714;49.756;8.610;2023-07-31T07:30:22;11.18;;;2.47;;
3401;SDS011;1714;49.756;8.610;2023-07-31T07:40:59;7.85;;;2.13;;
3401;SDS011;1714;49.756;8.610;2023-07-31T07:51:34;5.20;;;1.70;;
3401;SDS011;1714;49.756;8.610;2023-07-31T08:02:09;7.70;;;2.05;;
3401;SDS011;1714;49.756;8.610;2023-07-31T08:12:44;3.67;;;1.98;;
3401;SDS011;1714;49.756;8.610;2023-07-31T08:23:19;5.47;;;2.05;;
3401;SDS011;1714;49.756;8.610;2023-07-31T08:33:55;3.25;;;1.70;;
3401;SDS011;1714;49.756;8.610;2023-07-31T08:44:30;6.45;;;2.58;;
3401;SDS011;1714;49.756;8.610;2023-07-31T08:55:06;5.07;;;2.30;;
3401;SDS011;1714;49.756;8.610;2023-07-31T09:05:43;9.73;;;3.65;;
3401;SDS011;1714;49.756;8.610;2023-07-31T09:16:26;7.18;;;2.58;;
3401;SDS011;1714;49.756;8.610;2023-07-31T09:27:05;5.80;;;2.20;;
3401;SDS011;1714;49.756;8.610;2023-07-31T09:37:40;9.90;;;2.28;;
3401;SDS011;1714;49.756;8.610;2023-07-31T09:48:16;5.53;;;2.38;;
3401;SDS011;1714;49.756;8.610;2023-07-31T09:58:51;4.22;;;1.90;;
3401;SDS011;1714;49.756;8.610;2023-07-31T10:09:28;6.70;;;1.75;;
3401;SDS011;1714;49.756;8.610;2023-07-31T10:20:05;8.73;;;2.33;;
3401;SDS011;1714;49.756;8.610;2023-07-31T10:30:41;5.80;;;2.47;;
3401;SDS011;1714;49.756;8.610;2023-07-31T10:41:16;7.75;;;3.00;;
3401;SDS011;1714;49.756;8.610;2023-07-31T10:51:54;5.35;;;2.83;;
3401;SDS011;1714;49.756;8.610;2023-07-31T11:02:32;10.25;;;3.30;;
3401;SDS011;1714;49.756;8.610;2023-07-31T11:13:08;5.05;;;2.35;;
3401;SDS011;1714;49.756;8.610;2023-07-31T11:23:47;3.80;;;2.33;;
3401;SDS011;1714;49.756;8.610;2023-07-31T11:34:33;4.22;;;2.25;;
3401;SDS011;1714;49.756;8.610;2023-07-31T11:45:26;5.10;;;2.30;;
3401;SDS011;1714;49.756;8.610;2023-07-31T11:56:02;6.72;;;2.80;;
3401;SDS011;1714;49.756;8.610;2023-07-31T12:06:40;5.10;;;2.63;;
3401;SDS011;1714;49.756;8.610;2023-07-31T12:17:16;13.27;;;2.83;;
3401;SDS011;1714;49.756;8.610;2023-07-31T12:27:53;7.13;;;2.83;;
3401;SDS011;1714;49.756;8.610;2023-07-31T12:38:28;7.07;;;2.40;;
3401;SDS011;1714;49.756;8.610;2023-07-31T12:49:03;5.28;;;2.28;;
3401;SDS011;1714;49.756;8.610;2023-07-31T12:59:38;8.98;;;2.40;;
3401;SDS011;1714;49.756;8.610;2023-07-31T13:10:13;3.40;;;1.98;;
3401;SDS011;1714;49.756;8.610;2023-07-31T13:20:48;5.40;;;2.65;;
3401;SDS011;1714;49.756;8.610;2023-07-31T13:31:23;7.90;;;2.65;;
3401;SDS011;1714;49.756;8.610;2023-07-31T13:41:58;6.93;;;2.75;;
3401;SDS011;1714;49.756;8.610;2023-07-31T13:52:33;4.82;;;2.65;;
3401;SDS011;1714;49.756;8.610;2023-07-31T14:03:08;4.55;;;2.38;;
3401;SDS011;1714;49.756;8.610;2023-07-31T14:13:44;5.20;;;2.45;;
3401;SDS011;1714;49.756;8.610;2023-07-31T14:24:19;5.70;;;2.30;;
3401;SDS011;1714;49.756;8.610;2023-07-31T14:34:54;5.50;;;2.85;;
3401;SDS011;1714;49.756;8.610;2023-07-31T14:45:29;6.97;;;2.53;;
3401;SDS011;1714;49.756;8.610;2023-07-31T14:56:04;7.82;;;2.53;;
3401;SDS011;1714;49.756;8.610;2023-07-31T15:06:39;5.43;;;2.63;;
3401;SDS011;1714;49.756;8.610;2023-07-31T15:17:15;12.02;;;2.80;;
3401;SDS011;1714;49.756;8.610;2023-07-31T15:27:50;5.60;;;2.25;;
3401;SDS011;1714;49.756;8.610;2023-07-31T15:38:24;4.20;;;2.55;;
3401;SDS011;1714;49.756;8.610;2023-07-31T15:49:00;5.35;;;1.67;;
3401;SDS011;1714;49.756;8.610;2023-07-31T15:59:37;4.95;;;1.80;;
3401;SDS011;1714;49.756;8.610;2023-07-31T16:10:12;3.35;;;1.95;;
3401;SDS011;1714;49.756;8.610;2023-07-31T16:20:47;7.53;;;2.55;;
3401;SDS011;1714;49.756;8.610;2023-07-31T16:31:22;4.80;;;2.45;;
3401;SDS011;1714;49.756;8.610;2023-07-31T16:41:57;5.80;;;3.17;;
3401;SDS011;1714;49.756;8.610;2023-07-31T16:52:32;3.42;;;1.90;;
3401;SDS011;1714;49.756;8.610;2023-07-31T17:03:07;5.68;;;2.83;;
3401;SDS011;1714;49.756;8.610;2023-07-31T17:13:42;7.15;;;3.33;;
3401;SDS011;1714;49.756;8.610;2023-07-31T17:24:17;8.23;;;3.35;;
3401;SDS011;1714;49.756;8.610;2023-07-31T17:34:52;8.77;;;3.60;;
3401;SDS011;1714;49.756;8.610;2023-07-31T17:45:27;6.32;;;2.97;;
3401;SDS011;1714;49.756;8.610;2023-07-31T17:56:02;10.15;;;3.25;;
3401;SDS011;1714;49.756;8.610;2023-07-31T18:06:37;9.20;;;3.50;;
3401;SDS011;1714;49.756;8.610;2023-07-31T18:17:13;7.85;;;3.50;;
3401;SDS011;1714;49.756;8.610;2023-07-31T18:27:48;6.47;;;3.78;;
3401;SDS011;1714;49.756;8.610;2023-07-31T18:38:22;9.88;;;2.90;;
3401;SDS011;1714;49.756;8.610;2023-07-31T18:48:58;5.25;;;2.40;;
3401;SDS011;1714;49.756;8.610;2023-07-31T18:59:32;4.13;;;2.47;;
3401;SDS011;1714;49.756;8.610;2023-07-31T19:10:07;4.45;;;2.63;;
3401;SDS011;1714;49.756;8.610;2023-07-31T19:20:50;4.00;;;1.88;;
3401;SDS011;1714;49.756;8.610;2023-07-31T19:31:25;3.92;;;2.05;;
3401;SDS011;1714;49.756;8.610;2023-07-31T19:41:59;5.97;;;2.30;;
3401;SDS011;1714;49.756;8.610;2023-07-31T19:52:34;4.88;;;2.53;;
3401;SDS011;1714;49.756;8.610;2023-07-31T20:03:10;7.55;;;2.78;;
3401;SDS011;1714;49.756;8.610;2023-07-31T20:13:44;7.00;;;2.28;;
3401;SDS011;1714;49.756;8.610;2023-07-31T20:24:19;8.60;;;3.45;;
3401;SDS011;1714;49.756;8.610;2023-07-31T20:34:54;8.55;;;3.55;;
3401;SDS011;1714;49.756;8.610;2023-07-31T20:45:29;8.80;;;3.03;;
3401;SDS011;1714;49.756;8.610;2023-07-31T20:56:10;8.93;;;3.60;;
3401;SDS011;1714;49.756;8.610;2023-07-31T21:06:45;5.50;;;2.90;;
3401;SDS011;1714;49.756;8.610;2023-07-31T21:17:21;5.30;;;2.88;;
3401;SDS011;1714;49.756;8.610;2023-07-31T21:27:55;4.90;;;2.90;;
3401;SDS011;1714;49.756;8.610;2023-07-31T21:38:30;7.60;;;2.63;;
3401;SDS011;1714;49.756;8.610;2023-07-31T21:49:05;5.57;;;2.78;;
3401;SDS011;1714;49.756;8.610;2023-07-31T21:59:40;6.60;;;3.03;;
3401;SDS011;1714;49.756;8.610;2023-07-31T22:10:15;5.90;;;2.85;;
3401;SDS011;1714;49.756;8.610;2023-07-31T22:20:50;3.88;;;2.78;;
3401;SDS011;1714;49.756;8.610;2023-07-31T22:31:25;9.40;;;2.80;;
3401;SDS011;1714;49.756;8.610;2023-07-31T22:42:00;10.63;;;4.32;;
3401;SDS011;1714;49.756;8.610;2023-07-31T22:52:35;4.80;;;2.90;;
3401;SDS011;1714;49.756;8.610;2023-07-31T23:03:11;9.38;;;3.75;;
3401;SDS011;1714;49.756;8.610;2023-07-31T23:13:46;6.55;;;2.95;;
3401;SDS011;1714;49.756;8.610;2023-07-31T23:24:21;5.63;;;2.88;;
3401;SDS011;1714;49.756;8.610;2023-07-31T23:34:56;6.53;;;3.53;;
3401;SDS011;1714;49.756;8.610;2023-07-31T23:45:31;5.10;;;2.78;;
3401;SDS011;1714;49.756;8.610;2023-07-31T23:56:06;7.13;;;3.38;;
